ZLXY/XIY METAR and TAF weather

Enter ICAO airport designator
Station Type Date Time Source
ZLXY METAR 2021/04/17 03:00 UTC NOAA

ZLXY 170300Z 06007MPS CAVOK 16/M05 Q1027 NOSIG


Station Type Date Time Source
ZLXY Decoded METAR 2021/04/17 03:00 UTC NOAA

Xian/Xianyang, China (ZLXY) 34-26N 108-45E
Apr 16, 2021 - 11:00 PM EDT / 2021.04.17 0300 UTC
Wind: from the ENE (060 degrees) at 16 MPH (14 KT):0
Visibility: greater than 7 mile(s):0
Temperature: 60 F (16 C)
Dew Point: 23 F (-5 C)
Relative Humidity: 23%
Pressure (altimeter): 30.33 in. Hg (1027 hPa)
ob: ZLXY 170300Z 06007MPS CAVOK 16/M05 Q1027 NOSIG
cycle: 3

Station Type Date Time Source
ZLXY TAF 2021/04/16 18:03 UTC NOAA

TAF ZLXY 161510Z 1618/1718 06003MPS 3000 HZ NSC TX19/1707Z TN07/1622Z

Example: see airport list